createdAt,value
2023-02-10T00:00:00.392Z,101770
2023-02-10T00:01:03.466Z,101770
2023-02-10T00:02:00.311Z,101770
2023-02-10T00:03:00.394Z,101770
2023-02-10T00:04:00.393Z,101760
2023-02-10T00:05:00.296Z,101760
2023-02-10T00:06:01.341Z,101760
2023-02-10T00:07:00.371Z,101760
2023-02-10T00:08:00.373Z,101770
2023-02-10T00:09:01.656Z,101770
2023-02-10T00:10:00.320Z,101770
2023-02-10T00:11:02.200Z,101770
2023-02-10T00:12:00.289Z,101770
2023-02-10T00:13:00.309Z,101770
2023-02-10T00:14:00.329Z,101780
2023-02-10T00:15:00.296Z,101780
2023-02-10T00:16:02.810Z,101780
2023-02-10T00:17:00.320Z,101780
2023-02-10T00:18:00.278Z,101780
2023-02-10T00:19:00.364Z,101780
2023-02-10T00:20:00.365Z,101780
2023-02-10T00:21:09.188Z,101780
2023-02-10T00:22:01.725Z,101780
2023-02-10T00:23:00.296Z,101780
2023-02-10T00:24:00.345Z,101780
2023-02-10T00:25:00.337Z,101780
2023-02-10T00:26:11.203Z,101780
2023-02-10T00:27:00.771Z,101790
2023-02-10T00:28:00.325Z,101790
2023-02-10T00:29:00.308Z,101790
2023-02-10T00:30:00.328Z,101780
2023-02-10T00:31:09.508Z,101780
2023-02-10T00:32:00.328Z,101780
2023-02-10T00:33:00.320Z,101780
2023-02-10T00:34:00.425Z,101780
2023-02-10T00:35:00.290Z,101780
2023-02-10T00:36:04.346Z,101780
2023-02-10T00:37:00.370Z,101780
2023-02-10T00:38:00.348Z,101780
2023-02-10T00:39:00.317Z,101770
2023-02-10T00:40:00.723Z,101770
2023-02-10T00:41:02.628Z,101780
2023-02-10T00:42:00.364Z,101780
2023-02-10T00:43:00.292Z,101780
2023-02-10T00:44:00.313Z,101780
2023-02-10T00:45:00.310Z,101790
2023-02-10T00:46:00.515Z,101790
2023-02-10T00:47:00.363Z,101790
2023-02-10T00:48:00.330Z,101790
2023-02-10T00:49:00.372Z,101790
2023-02-10T00:50:00.675Z,101790
2023-02-10T00:51:00.445Z,101790
2023-02-10T00:52:00.323Z,101790
2023-02-10T00:53:00.368Z,101790
2023-02-10T00:54:00.362Z,101790
2023-02-10T00:55:00.360Z,101790
2023-02-10T00:56:00.372Z,101790
2023-02-10T00:57:00.352Z,101790
2023-02-10T00:58:00.309Z,101790
2023-02-10T00:59:00.369Z,101780
2023-02-10T01:00:00.372Z,101790
2023-02-10T01:01:00.436Z,101790
2023-02-10T01:02:00.442Z,101790
2023-02-10T01:03:00.384Z,101790
2023-02-10T01:04:00.322Z,101790
2023-02-10T01:05:00.354Z,101790
2023-02-10T01:06:00.648Z,101790
2023-02-10T01:07:00.358Z,101790
2023-02-10T01:08:00.454Z,101790
2023-02-10T01:09:00.392Z,101790
2023-02-10T01:10:00.382Z,101780
2023-02-10T01:11:04.095Z,101780
2023-02-10T01:12:00.387Z,101780
2023-02-10T01:13:01.982Z,101780
2023-02-10T01:14:00.291Z,101780
2023-02-10T01:15:00.301Z,101780
2023-02-10T01:16:03.453Z,101780
2023-02-10T01:17:00.286Z,101780
2023-02-10T01:18:00.532Z,101780
2023-02-10T01:19:00.637Z,101780
2023-02-10T01:20:00.478Z,101770
2023-02-10T01:21:09.643Z,101770
2023-02-10T01:22:00.290Z,101770
2023-02-10T01:23:00.305Z,101770
2023-02-10T01:24:00.298Z,101770
2023-02-10T01:25:00.536Z,101770
2023-02-10T01:26:00.406Z,101760
2023-02-10T01:27:00.342Z,101760
2023-02-10T01:28:00.516Z,101760
2023-02-10T01:29:00.325Z,101760
2023-02-10T01:30:00.375Z,101750
2023-02-10T01:31:05.115Z,101750
2023-02-10T01:32:00.322Z,101750
2023-02-10T01:33:00.410Z,101750
2023-02-10T01:34:00.367Z,101760
2023-02-10T01:35:00.329Z,101760
2023-02-10T01:36:11.428Z,101760
2023-02-10T01:37:00.286Z,101760
2023-02-10T01:38:00.307Z,101760
2023-02-10T01:39:00.333Z,101760
2023-02-10T01:40:00.375Z,101760
2023-02-10T01:41:00.557Z,101760
2023-02-10T01:42:01.040Z,101760
2023-02-10T01:43:00.323Z,101750
2023-02-10T01:44:03.544Z,101760
2023-02-10T01:45:14.121Z,101750
2023-02-10T01:46:00.483Z,101750
2023-02-10T01:47:00.352Z,101750
2023-02-10T01:48:01.139Z,101750
2023-02-10T01:49:04.947Z,101750
2023-02-10T01:50:00.350Z,101750
2023-02-10T01:51:06.221Z,101750
2023-02-10T01:52:05.234Z,101750
2023-02-10T01:53:01.551Z,101750
2023-02-10T01:54:00.722Z,101750
2023-02-10T01:55:10.527Z,101750
2023-02-10T01:56:02.607Z,101740
2023-02-10T01:57:01.451Z,101740
2023-02-10T01:58:05.030Z,101740
2023-02-10T01:59:00.342Z,101750
2023-02-10T02:00:04.602Z,101750
2023-02-10T02:01:00.549Z,101750
2023-02-10T02:02:00.917Z,101750
2023-02-10T02:03:01.383Z,101750
2023-02-10T02:04:01.759Z,101750
2023-02-10T02:05:02.374Z,101750
2023-02-10T02:06:00.291Z,101750
2023-02-10T02:07:00.362Z,101750
2023-02-10T02:08:05.849Z,101750
2023-02-10T02:09:01.609Z,101760
2023-02-10T02:10:04.676Z,101760
2023-02-10T02:11:08.723Z,101760
2023-02-10T02:12:12.718Z,101760
2023-02-10T02:13:10.134Z,101760
2023-02-10T02:14:14.690Z,101770
2023-02-10T02:15:14.710Z,101770
2023-02-10T02:16:10.561Z,101770
2023-02-10T02:17:13.553Z,101780
2023-02-10T02:18:13.566Z,101770
2023-02-10T02:19:17.307Z,101770
2023-02-10T02:20:10.391Z,101780
2023-02-10T02:21:13.494Z,101780
2023-02-10T02:22:20.241Z,101780
2023-02-10T02:23:17.670Z,101770
2023-02-10T02:24:06.951Z,101770
2023-02-10T02:25:20.192Z,101770
2023-02-10T02:26:10.222Z,101770
2023-02-10T02:27:13.514Z,101760
2023-02-10T02:28:20.254Z,101760
2023-02-10T02:29:20.190Z,101760
2023-02-10T02:30:15.824Z,101760
2023-02-10T02:31:20.206Z,101760
2023-02-10T02:32:17.732Z,101760
2023-02-10T02:33:08.001Z,101760
2023-02-10T02:34:05.945Z,101770
2023-02-10T02:35:13.504Z,101760
2023-02-10T02:36:06.190Z,101770
2023-02-10T02:37:05.808Z,101770
2023-02-10T02:38:01.078Z,101770
2023-02-10T02:39:02.920Z,101770
2023-02-10T02:40:00.364Z,101770
2023-02-10T02:41:00.299Z,101770
2023-02-10T02:42:11.228Z,101770
2023-02-10T02:43:00.452Z,101770
2023-02-10T02:44:02.651Z,101770
2023-02-10T02:45:04.512Z,101770
2023-02-10T02:46:20.227Z,101770
2023-02-10T02:47:15.205Z,101760
2023-02-10T02:48:13.519Z,101770
2023-02-10T02:49:10.218Z,101770
2023-02-10T02:50:20.236Z,101770
2023-02-10T02:51:09.740Z,101770
2023-02-10T02:52:08.049Z,101770
2023-02-10T02:53:17.735Z,101770
2023-02-10T02:54:11.282Z,101770
2023-02-10T02:55:09.146Z,101760
2023-02-10T02:56:11.295Z,101770
2023-02-10T02:57:17.640Z,101770
2023-02-10T02:58:10.166Z,101760
2023-02-10T02:59:15.197Z,101760
2023-02-10T03:00:12.711Z,101760
2023-02-10T03:01:06.144Z,101760
2023-02-10T03:02:04.161Z,101750
2023-02-10T03:03:01.066Z,101750
2023-02-10T03:04:01.393Z,101760
2023-02-10T03:05:00.300Z,101750
2023-02-10T03:06:01.584Z,101750
2023-02-10T03:07:01.676Z,101750
2023-02-10T03:08:00.307Z,101760
2023-02-10T03:09:00.312Z,101750
2023-02-10T03:10:00.739Z,101750
2023-02-10T03:11:00.310Z,101760
2023-02-10T03:12:00.412Z,101760
2023-02-10T03:13:00.308Z,101750
2023-02-10T03:14:00.653Z,101760
2023-02-10T03:15:00.310Z,101760
2023-02-10T03:16:00.384Z,101750
2023-02-10T03:17:00.362Z,101760
2023-02-10T03:18:00.318Z,101760
2023-02-10T03:19:00.290Z,101760
2023-02-10T03:20:00.428Z,101760
2023-02-10T03:21:00.446Z,101760
2023-02-10T03:22:01.069Z,101770
2023-02-10T03:23:00.286Z,101770
2023-02-10T03:24:00.312Z,101770
2023-02-10T03:25:00.345Z,101770
2023-02-10T03:26:00.882Z,101770
2023-02-10T03:27:00.289Z,101770
2023-02-10T03:28:00.394Z,101770
2023-02-10T03:29:00.310Z,101770
2023-02-10T03:30:00.369Z,101780
2023-02-10T03:31:03.995Z,101780
2023-02-10T03:32:00.365Z,101780
2023-02-10T03:33:00.305Z,101780
2023-02-10T03:34:00.298Z,101780
2023-02-10T03:35:00.271Z,101790
2023-02-10T03:36:00.543Z,101780
2023-02-10T03:37:00.641Z,101790
2023-02-10T03:38:00.270Z,101780
2023-02-10T03:39:01.158Z,101780
2023-02-10T03:40:00.333Z,101790
2023-02-10T03:41:00.278Z,101790
2023-02-10T03:42:00.283Z,101790
2023-02-10T03:43:00.354Z,101790
2023-02-10T03:44:00.371Z,101790
2023-02-10T03:45:00.299Z,101790
2023-02-10T03:46:01.600Z,101790
2023-02-10T03:47:00.323Z,101790
2023-02-10T03:48:00.294Z,101790
2023-02-10T03:49:00.324Z,101790
2023-02-10T03:50:00.442Z,101790
2023-02-10T03:51:02.300Z,101790
2023-02-10T03:52:00.370Z,101790
2023-02-10T03:53:01.200Z,101790
2023-02-10T03:54:00.290Z,101790
2023-02-10T03:55:00.338Z,101790
2023-02-10T03:56:00.709Z,101790
2023-02-10T03:57:00.342Z,101790
2023-02-10T03:58:01.067Z,101790
2023-02-10T03:59:01.679Z,101800
2023-02-10T04:00:00.302Z,101800
2023-02-10T04:01:08.340Z,101800
2023-02-10T04:02:00.303Z,101800
2023-02-10T04:03:00.312Z,101800
2023-02-10T04:04:00.340Z,101800
2023-02-10T04:05:00.289Z,101800
2023-02-10T04:06:00.288Z,101800
2023-02-10T04:07:02.308Z,101800
2023-02-10T04:08:00.404Z,101800
2023-02-10T04:09:00.303Z,101810
2023-02-10T04:10:00.379Z,101810
2023-02-10T04:11:00.288Z,101810
2023-02-10T04:12:00.312Z,101810
2023-02-10T04:13:00.459Z,101810
2023-02-10T04:14:00.295Z,101800
2023-02-10T04:15:00.304Z,101810
2023-02-10T04:16:03.982Z,101810
2023-02-10T04:17:00.373Z,101800
2023-02-10T04:18:00.302Z,101800
2023-02-10T04:19:00.360Z,101800
2023-02-10T04:20:00.323Z,101800
2023-02-10T04:21:01.548Z,101810
2023-02-10T04:22:00.294Z,101800
2023-02-10T04:23:00.302Z,101810
2023-02-10T04:24:00.323Z,101800
2023-02-10T04:25:00.744Z,101810
2023-02-10T04:26:00.783Z,101810
2023-02-10T04:27:00.404Z,101810
2023-02-10T04:28:00.327Z,101810
2023-02-10T04:29:00.311Z,101810
2023-02-10T04:30:00.853Z,101810
2023-02-10T04:31:00.995Z,101810
2023-02-10T04:32:00.315Z,101810
2023-02-10T04:33:00.284Z,101810
2023-02-10T04:34:00.380Z,101810
2023-02-10T04:35:00.350Z,101810
2023-02-10T04:36:00.344Z,101810
2023-02-10T04:37:00.780Z,101810
2023-02-10T04:38:00.306Z,101810
2023-02-10T04:39:00.368Z,101800
2023-02-10T04:40:00.326Z,101810
2023-02-10T04:41:00.420Z,101810
2023-02-10T04:42:00.302Z,101810
2023-02-10T04:43:00.312Z,101810
2023-02-10T04:44:00.305Z,101810
2023-02-10T04:45:00.314Z,101810
2023-02-10T04:46:00.399Z,101810
2023-02-10T04:47:00.454Z,101810
2023-02-10T04:48:00.387Z,101810
2023-02-10T04:49:00.313Z,101810
2023-02-10T04:50:00.318Z,101810
2023-02-10T04:51:08.302Z,101810
2023-02-10T04:52:00.361Z,101810
2023-02-10T04:53:00.345Z,101810
2023-02-10T04:54:00.327Z,101800
2023-02-10T04:55:00.304Z,101800
2023-02-10T04:56:00.337Z,101800
2023-02-10T04:57:00.332Z,101800
2023-02-10T04:58:00.474Z,101800
2023-02-10T04:59:00.287Z,101800
2023-02-10T05:00:00.380Z,101800
2023-02-10T05:01:00.583Z,101800
2023-02-10T05:02:00.395Z,101800
2023-02-10T05:03:00.304Z,101800
2023-02-10T05:04:00.881Z,101810
2023-02-10T05:05:00.423Z,101800
2023-02-10T05:06:07.487Z,101800
2023-02-10T05:07:00.320Z,101800
2023-02-10T05:08:00.452Z,101800
2023-02-10T05:09:00.335Z,101800
2023-02-10T05:10:00.334Z,101800
2023-02-10T05:11:00.314Z,101800
2023-02-10T05:12:00.304Z,101800
2023-02-10T05:13:00.280Z,101800
2023-02-10T05:14:00.293Z,101800
2023-02-10T05:15:00.309Z,101810
2023-02-10T05:16:00.390Z,101810
2023-02-10T05:17:00.322Z,101810
2023-02-10T05:18:00.282Z,101810
2023-02-10T05:19:00.384Z,101820
2023-02-10T05:20:00.288Z,101820
2023-02-10T05:21:01.003Z,101820
2023-02-10T05:22:00.327Z,101820
2023-02-10T05:23:00.374Z,101820
2023-02-10T05:24:00.291Z,101820
2023-02-10T05:25:00.328Z,101820
2023-02-10T05:26:00.533Z,101820
2023-02-10T05:27:00.369Z,101820
2023-02-10T05:28:00.393Z,101820
2023-02-10T05:29:00.320Z,101830
2023-02-10T05:30:00.311Z,101830
2023-02-10T05:31:00.375Z,101830
2023-02-10T05:32:01.374Z,101830
2023-02-10T05:33:00.302Z,101820
2023-02-10T05:34:00.296Z,101820
2023-02-10T05:35:00.304Z,101820
2023-02-10T05:36:00.311Z,101820
2023-02-10T05:37:00.301Z,101820
2023-02-10T05:38:00.499Z,101820
2023-02-10T05:39:00.326Z,101830
2023-02-10T05:40:00.301Z,101830
2023-02-10T05:41:00.433Z,101830
2023-02-10T05:42:00.524Z,101830
2023-02-10T05:43:00.328Z,101840
2023-02-10T05:44:00.313Z,101840
2023-02-10T05:45:00.313Z,101840
2023-02-10T05:46:00.417Z,101840
2023-02-10T05:47:00.293Z,101840
2023-02-10T05:48:00.289Z,101840
2023-02-10T05:49:00.516Z,101840
2023-02-10T05:50:00.291Z,101840
2023-02-10T05:51:00.318Z,101840
2023-02-10T05:52:00.321Z,101840
2023-02-10T05:53:00.533Z,101850
2023-02-10T05:54:00.319Z,101850
2023-02-10T05:55:00.338Z,101850
2023-02-10T05:56:00.309Z,101850
2023-02-10T05:57:00.767Z,101850
2023-02-10T05:58:00.315Z,101850
2023-02-10T05:59:00.617Z,101850
2023-02-10T06:00:00.384Z,101850
2023-02-10T06:01:00.358Z,101850
2023-02-10T06:02:00.517Z,101850
2023-02-10T06:03:00.373Z,101850
2023-02-10T06:04:00.310Z,101860
2023-02-10T06:05:00.353Z,101860
2023-02-10T06:06:00.496Z,101870
2023-02-10T06:07:00.348Z,101860
2023-02-10T06:08:00.303Z,101860
2023-02-10T06:09:00.289Z,101870
2023-02-10T06:10:00.286Z,101870
2023-02-10T06:11:00.377Z,101870
2023-02-10T06:12:00.338Z,101870
2023-02-10T06:13:00.283Z,101880
2023-02-10T06:14:00.667Z,101880
2023-02-10T06:15:00.332Z,101870
2023-02-10T06:16:00.300Z,101870
2023-02-10T06:17:01.592Z,101870
2023-02-10T06:18:00.364Z,101870
2023-02-10T06:19:00.411Z,101870
2023-02-10T06:20:00.317Z,101870
2023-02-10T06:21:00.962Z,101870
2023-02-10T06:22:00.347Z,101870
2023-02-10T06:23:00.325Z,101880
2023-02-10T06:24:00.336Z,101880
2023-02-10T06:25:00.287Z,101890
2023-02-10T06:26:00.376Z,101890
2023-02-10T06:27:00.521Z,101890
2023-02-10T06:28:00.330Z,101900
2023-02-10T06:29:00.329Z,101890
2023-02-10T06:30:00.323Z,101900
2023-02-10T06:31:00.466Z,101900
2023-02-10T06:32:00.309Z,101900
2023-02-10T06:33:00.312Z,101900
2023-02-10T06:34:00.465Z,101900
2023-02-10T06:35:00.385Z,101890
2023-02-10T06:36:00.348Z,101890
2023-02-10T06:37:00.346Z,101890
2023-02-10T06:38:00.330Z,101890
2023-02-10T06:39:00.361Z,101890
2023-02-10T06:40:00.294Z,101890
2023-02-10T06:41:00.425Z,101890
2023-02-10T06:42:00.322Z,101890
2023-02-10T06:43:00.280Z,101890
2023-02-10T06:44:00.364Z,101890
2023-02-10T06:45:00.344Z,101900
2023-02-10T06:46:00.699Z,101900
2023-02-10T06:47:00.324Z,101890
2023-02-10T06:48:00.864Z,101890
2023-02-10T06:49:00.317Z,101890
2023-02-10T06:50:00.443Z,101900
2023-02-10T06:51:01.023Z,101900
2023-02-10T06:52:00.687Z,101900
2023-02-10T06:53:00.283Z,101900
2023-02-10T06:54:00.303Z,101900
2023-02-10T06:55:00.705Z,101900
2023-02-10T06:56:00.309Z,101900
2023-02-10T06:57:00.332Z,101900
2023-02-10T06:58:01.228Z,101900
2023-02-10T06:59:00.324Z,101900
2023-02-10T07:00:00.358Z,101900
2023-02-10T07:01:00.431Z,101900
2023-02-10T07:02:00.309Z,101900
2023-02-10T07:03:00.642Z,101900
2023-02-10T07:04:00.295Z,101900
2023-02-10T07:05:00.278Z,101900
2023-02-10T07:06:00.294Z,101900
2023-02-10T07:07:00.378Z,101900
2023-02-10T07:08:00.282Z,101900
2023-02-10T07:09:00.359Z,101900
2023-02-10T07:10:00.354Z,101900
2023-02-10T07:11:00.670Z,101900
2023-02-10T07:12:00.308Z,101900
2023-02-10T07:13:00.301Z,101900
2023-02-10T07:14:00.381Z,101900
2023-02-10T07:15:00.401Z,101900
2023-02-10T07:16:00.437Z,101900
2023-02-10T07:17:00.305Z,101900
2023-02-10T07:18:00.292Z,101900
2023-02-10T07:19:00.361Z,101900
2023-02-10T07:20:00.307Z,101910
2023-02-10T07:21:00.408Z,101910
2023-02-10T07:22:00.329Z,101910
2023-02-10T07:23:00.347Z,101910
2023-02-10T07:24:00.296Z,101910
2023-02-10T07:25:00.283Z,101910
2023-02-10T07:26:00.303Z,101910
2023-02-10T07:27:00.350Z,101910
2023-02-10T07:28:00.481Z,101910
2023-02-10T07:29:00.339Z,101910
2023-02-10T07:30:00.327Z,101920
2023-02-10T07:31:00.517Z,101910
2023-02-10T07:32:00.421Z,101920
2023-02-10T07:33:00.414Z,101910
2023-02-10T07:34:01.476Z,101920
2023-02-10T07:35:00.303Z,101920
2023-02-10T07:36:01.018Z,101920
2023-02-10T07:37:00.830Z,101920
2023-02-10T07:38:00.290Z,101920
2023-02-10T07:39:00.308Z,101920
2023-02-10T07:40:00.332Z,101930
2023-02-10T07:41:00.318Z,101930
2023-02-10T07:42:00.292Z,101930
2023-02-10T07:43:00.313Z,101930
2023-02-10T07:44:00.275Z,101930
2023-02-10T07:45:00.546Z,101930
2023-02-10T07:46:00.681Z,101930
2023-02-10T07:47:00.306Z,101930
2023-02-10T07:48:00.298Z,101930
2023-02-10T07:49:00.403Z,101930
2023-02-10T07:50:00.289Z,101930
2023-02-10T07:51:00.319Z,101920
2023-02-10T07:52:00.341Z,101920
2023-02-10T07:53:00.329Z,101920
2023-02-10T07:54:00.520Z,101920
2023-02-10T07:55:00.279Z,101920
2023-02-10T07:56:00.408Z,101920
2023-02-10T07:57:00.296Z,101920
2023-02-10T07:58:00.276Z,101920
2023-02-10T07:59:00.293Z,101920
2023-02-10T08:00:00.325Z,101920
2023-02-10T08:01:04.854Z,101920
2023-02-10T08:02:00.336Z,101920
2023-02-10T08:03:00.306Z,101920
2023-02-10T08:04:00.300Z,101930
2023-02-10T08:05:00.577Z,101930
2023-02-10T08:06:00.295Z,101930
2023-02-10T08:07:00.355Z,101930
2023-02-10T08:08:00.276Z,101930
2023-02-10T08:09:00.358Z,101930
2023-02-10T08:10:00.281Z,101930
2023-02-10T08:11:04.212Z,101930
2023-02-10T08:12:00.336Z,101930
2023-02-10T08:13:00.318Z,101930
2023-02-10T08:14:02.232Z,101920
2023-02-10T08:15:00.306Z,101920
2023-02-10T08:16:02.960Z,101920
2023-02-10T08:17:00.346Z,101920
2023-02-10T08:18:01.083Z,101920
2023-02-10T08:19:00.278Z,101920
2023-02-10T08:20:00.320Z,101920
2023-02-10T08:21:01.493Z,101920
2023-02-10T08:22:00.329Z,101920
2023-02-10T08:23:00.305Z,101930
2023-02-10T08:24:00.337Z,101930
2023-02-10T08:25:00.606Z,101930
2023-02-10T08:26:05.089Z,101930
2023-02-10T08:27:00.401Z,101930
2023-02-10T08:28:00.384Z,101930
2023-02-10T08:29:00.655Z,101930
2023-02-10T08:30:00.300Z,101930
2023-02-10T08:31:01.986Z,101930
2023-02-10T08:32:00.422Z,101920
2023-02-10T08:33:00.302Z,101930
2023-02-10T08:34:00.278Z,101930
2023-02-10T08:35:00.307Z,101930
2023-02-10T08:36:09.986Z,101920
2023-02-10T08:37:00.370Z,101920
2023-02-10T08:38:00.296Z,101920
2023-02-10T08:39:00.290Z,101920
2023-02-10T08:40:00.521Z,101930
2023-02-10T08:41:01.272Z,101920
2023-02-10T08:42:00.406Z,101920
2023-02-10T08:43:02.145Z,101920
2023-02-10T08:44:00.339Z,101920
2023-02-10T08:45:00.405Z,101920
2023-02-10T08:46:01.218Z,101920
2023-02-10T08:47:00.437Z,101920
2023-02-10T08:48:00.320Z,101920
2023-02-10T08:49:00.298Z,101920
2023-02-10T08:50:00.657Z,101920
2023-02-10T08:51:00.648Z,101930
2023-02-10T08:52:00.294Z,101930
2023-02-10T08:53:00.287Z,101930
2023-02-10T08:54:01.178Z,101930
2023-02-10T08:55:00.573Z,101930
2023-02-10T08:56:04.275Z,101930
2023-02-10T08:57:00.279Z,101930
2023-02-10T08:58:00.307Z,101930
2023-02-10T08:59:00.367Z,101930
2023-02-10T09:00:00.750Z,101940
2023-02-10T09:01:00.435Z,101940
2023-02-10T09:02:00.343Z,101940
2023-02-10T09:03:00.389Z,101940
2023-02-10T09:04:00.342Z,101940
2023-02-10T09:05:09.857Z,101940
2023-02-10T09:06:00.281Z,101930
2023-02-10T09:07:00.352Z,101930
2023-02-10T09:08:00.275Z,101930
2023-02-10T09:09:00.321Z,101920
2023-02-10T09:10:00.317Z,101920
2023-02-10T09:11:00.300Z,101930
2023-02-10T09:12:00.270Z,101930
2023-02-10T09:13:00.365Z,101930
2023-02-10T09:14:00.319Z,101930
2023-02-10T09:15:00.286Z,101930
2023-02-10T09:16:00.363Z,101940
2023-02-10T09:17:00.353Z,101930
2023-02-10T09:18:00.276Z,101930
2023-02-10T09:19:00.295Z,101930
2023-02-10T09:20:00.301Z,101940
2023-02-10T09:21:01.270Z,101930
2023-02-10T09:22:00.310Z,101940
2023-02-10T09:23:00.309Z,101940
2023-02-10T09:24:00.360Z,101940
2023-02-10T09:25:00.351Z,101930
2023-02-10T09:26:00.466Z,101940
2023-02-10T09:27:00.690Z,101940
2023-02-10T09:28:00.365Z,101940
2023-02-10T09:29:00.290Z,101940
2023-02-10T09:30:00.279Z,101940
2023-02-10T09:31:00.479Z,101940
2023-02-10T09:32:00.418Z,101940
2023-02-10T09:33:00.328Z,101940
2023-02-10T09:34:00.860Z,101940
2023-02-10T09:35:00.307Z,101940
2023-02-10T09:36:03.467Z,101940
2023-02-10T09:37:00.344Z,101940
2023-02-10T09:38:00.288Z,101950
2023-02-10T09:39:00.379Z,101940
2023-02-10T09:40:00.345Z,101950
2023-02-10T09:41:10.230Z,101950
2023-02-10T09:42:10.030Z,101950
2023-02-10T09:43:18.389Z,101940
2023-02-10T09:44:07.729Z,101940
2023-02-10T09:45:09.956Z,101950
2023-02-10T09:46:18.683Z,101940
2023-02-10T09:47:16.537Z,101940
2023-02-10T09:48:08.101Z,101940
2023-02-10T09:49:14.937Z,101940
2023-02-10T09:50:10.227Z,101950
2023-02-10T09:51:10.255Z,101950
2023-02-10T09:52:09.699Z,101950
2023-02-10T09:53:01.302Z,101950
2023-02-10T09:54:00.856Z,101950
2023-02-10T09:55:01.718Z,101950
2023-02-10T09:56:04.155Z,101950
2023-02-10T09:57:03.735Z,101950
2023-02-10T09:58:04.895Z,101960
2023-02-10T09:59:01.013Z,101950
2023-02-10T10:00:01.236Z,101960
2023-02-10T10:01:13.955Z,101960
2023-02-10T10:02:11.618Z,101960
2023-02-10T10:03:05.544Z,101960
2023-02-10T10:04:09.538Z,101970
2023-02-10T10:05:12.681Z,101970
2023-02-10T10:06:13.935Z,101970
2023-02-10T10:07:15.484Z,101970
2023-02-10T10:08:04.082Z,101970
2023-02-10T10:09:08.169Z,101970
2023-02-10T10:10:05.193Z,101970
2023-02-10T10:11:06.919Z,101970
2023-02-10T10:12:00.685Z,101970
2023-02-10T10:13:00.335Z,101970
2023-02-10T10:14:00.799Z,101970
2023-02-10T10:15:00.380Z,101980
2023-02-10T10:16:12.978Z,101970
2023-02-10T10:17:11.244Z,101970
2023-02-10T10:18:10.143Z,101970
2023-02-10T10:19:13.510Z,101970
2023-02-10T10:20:17.597Z,101970
2023-02-10T10:21:09.457Z,101970
2023-02-10T10:22:15.465Z,101970
2023-02-10T10:23:19.006Z,101970
2023-02-10T10:24:20.212Z,101970
2023-02-10T10:25:10.277Z,101980
2023-02-10T10:26:08.916Z,101980
2023-02-10T10:27:17.710Z,101980
2023-02-10T10:28:20.293Z,101980
2023-02-10T10:29:20.214Z,101970
2023-02-10T10:30:14.638Z,101970
2023-02-10T10:31:13.681Z,101970
2023-02-10T10:32:13.211Z,101970
2023-02-10T10:33:05.978Z,101970
2023-02-10T10:34:12.553Z,101970
2023-02-10T10:35:01.952Z,101970
2023-02-10T10:36:01.087Z,101980
2023-02-10T10:37:00.834Z,101970
2023-02-10T10:38:00.328Z,101970
2023-02-10T10:39:09.168Z,101970
2023-02-10T10:40:05.764Z,101960
2023-02-10T10:41:07.664Z,101960
2023-02-10T10:42:05.498Z,101960
2023-02-10T10:43:00.759Z,101960
2023-02-10T10:44:00.329Z,101960
2023-02-10T10:45:16.740Z,101960
2023-02-10T10:46:10.554Z,101950
2023-02-10T10:47:13.569Z,101950
2023-02-10T10:48:07.087Z,101950
2023-02-10T10:49:00.309Z,101950
2023-02-10T10:50:00.320Z,101950
2023-02-10T10:51:04.392Z,101950
2023-02-10T10:52:00.334Z,101950
2023-02-10T10:53:05.010Z,101950
2023-02-10T10:54:01.325Z,101950
2023-02-10T10:55:05.801Z,101950
2023-02-10T10:56:02.319Z,101950
2023-02-10T10:57:05.259Z,101950
2023-02-10T10:58:03.253Z,101950
2023-02-10T10:59:10.082Z,101950
2023-02-10T11:00:16.886Z,101950
2023-02-10T11:01:01.544Z,101950
2023-02-10T11:02:14.775Z,101950
2023-02-10T11:03:03.976Z,101940
2023-02-10T11:04:13.485Z,101940
2023-02-10T11:05:04.484Z,101940
2023-02-10T11:06:08.404Z,101940
2023-02-10T11:07:00.415Z,101940
2023-02-10T11:08:00.613Z,101940
2023-02-10T11:09:03.172Z,101940
2023-02-10T11:10:00.584Z,101940
2023-02-10T11:11:03.919Z,101940
2023-02-10T11:12:05.000Z,101940
2023-02-10T11:13:00.432Z,101940
2023-02-10T11:14:00.853Z,101940
2023-02-10T11:15:01.857Z,101950
2023-02-10T11:16:04.095Z,101940
2023-02-10T11:17:00.985Z,101940
2023-02-10T11:18:01.854Z,101930
2023-02-10T11:19:01.828Z,101930
2023-02-10T11:20:05.480Z,101930
2023-02-10T11:21:04.748Z,101930
2023-02-10T11:22:00.612Z,101930
2023-02-10T11:23:04.481Z,101940
2023-02-10T11:24:00.399Z,101940
2023-02-10T11:25:03.174Z,101940
2023-02-10T11:26:06.023Z,101940
2023-02-10T11:27:03.902Z,101930
2023-02-10T11:28:02.194Z,101930
2023-02-10T11:29:09.274Z,101930
2023-02-10T11:30:00.352Z,101930
2023-02-10T11:31:03.909Z,101930
2023-02-10T11:32:01.239Z,101930
2023-02-10T11:33:01.887Z,101930
2023-02-10T11:34:02.911Z,101930
2023-02-10T11:35:03.911Z,101920
2023-02-10T11:36:05.342Z,101920
2023-02-10T11:37:10.562Z,101920
2023-02-10T11:38:05.265Z,101930
2023-02-10T11:39:03.890Z,101930
2023-02-10T11:40:05.144Z,101930
2023-02-10T11:41:02.934Z,101930
2023-02-10T11:42:08.951Z,101930
2023-02-10T11:43:01.049Z,101930
2023-02-10T11:44:01.057Z,101930
2023-02-10T11:45:10.264Z,101930
2023-02-10T11:46:03.696Z,101930
2023-02-10T11:47:02.998Z,101930
2023-02-10T11:48:03.427Z,101920
2023-02-10T11:49:03.190Z,101920
2023-02-10T11:50:00.465Z,101930
2023-02-10T11:51:01.773Z,101920
2023-02-10T11:52:02.115Z,101930
2023-02-10T11:53:01.173Z,101930
2023-02-10T11:54:00.474Z,101920
2023-02-10T11:55:01.174Z,101920
2023-02-10T11:56:06.226Z,101920
2023-02-10T11:57:10.252Z,101920
2023-02-10T11:58:10.252Z,101920
2023-02-10T11:59:12.343Z,101920
2023-02-10T12:00:09.981Z,101920
2023-02-10T12:01:08.183Z,101920
2023-02-10T12:02:20.200Z,101920
2023-02-10T12:03:11.257Z,101920
2023-02-10T12:04:11.114Z,101920
2023-02-10T12:05:00.318Z,101910
2023-02-10T12:06:13.480Z,101910
2023-02-10T12:07:10.115Z,101920
2023-02-10T12:08:20.189Z,101920
2023-02-10T12:09:17.636Z,101920
2023-02-10T12:10:12.316Z,101910
2023-02-10T12:11:11.380Z,101920
2023-02-10T12:12:10.242Z,101920
2023-02-10T12:13:10.678Z,101930
2023-02-10T12:14:10.223Z,101930
2023-02-10T12:15:07.626Z,101920
2023-02-10T12:16:08.894Z,101930
2023-02-10T12:17:00.296Z,101920
2023-02-10T12:18:12.277Z,101920
2023-02-10T12:19:17.724Z,101920
2023-02-10T12:20:20.202Z,101920
2023-02-10T12:21:13.988Z,101920
2023-02-10T12:22:16.020Z,101920
2023-02-10T12:23:10.234Z,101920
2023-02-10T12:24:17.744Z,101930
2023-02-10T12:25:06.120Z,101930
2023-02-10T12:26:10.282Z,101930
2023-02-10T12:27:12.432Z,101930
2023-02-10T12:28:06.072Z,101930